Los Angeles, California
Traffic Map
Current Weather Conditions
Los Angeles, California
Clear
Clear
23°
Feels Like: 23°
Wind Chill: 23° Ceiling: Unl
Heat Index: 23° Visibility: 10mi
Dew Point: 13° Wind: 3mph
Humidity: 53% Direction: ° ()
Pressure: 29.92in Gusts: 0mph
Raw Report DataKCQT 010247Z AUTO VRB03KT 10SM CLR 23/13 A2992 RMK AO2 SLP131 T02280128 55001
Traffic Incident Summary
Active as of:
Severity:
Category:
InformationThere was an issue retrieving the traffic information for this location. Please try a different location or try again shortly.
Advertisements
Track Severe Weather on mobile